createdAt,value
2022-10-20T00:00:32.643Z,14.45
2022-10-20T00:03:00.380Z,14.48
2022-10-20T00:05:28.193Z,14.47
2022-10-20T00:07:55.979Z,14.48
2022-10-20T00:10:23.736Z,14.48
2022-10-20T00:12:51.539Z,14.47
2022-10-20T00:15:19.442Z,14.44
2022-10-20T00:17:47.657Z,14.44
2022-10-20T00:22:48.046Z,14.49
2022-10-20T00:25:15.910Z,14.49
2022-10-20T00:27:43.675Z,14.49
2022-10-20T00:30:12.192Z,14.50
2022-10-20T00:32:39.937Z,14.52
2022-10-20T00:35:08.156Z,14.50
2022-10-20T00:37:35.993Z,14.50
2022-10-20T00:40:03.712Z,14.52
2022-10-20T00:42:31.539Z,14.54
2022-10-20T00:45:00.795Z,14.55
2022-10-20T00:47:43.714Z,14.53
2022-10-20T00:50:25.441Z,14.52
2022-10-20T00:52:53.720Z,14.57
2022-10-20T00:55:26.228Z,14.56
2022-10-20T00:57:54.211Z,14.57
2022-10-20T01:00:21.955Z,14.57
2022-10-20T01:02:51.285Z,14.59
2022-10-20T01:05:19.220Z,14.60
2022-10-20T01:07:46.978Z,14.62
2022-10-20T01:10:14.745Z,14.64
2022-10-20T01:12:54.942Z,14.64
2022-10-20T01:16:07.567Z,14.65
2022-10-20T01:19:08.507Z,14.65
2022-10-20T01:22:05.482Z,14.65
2022-10-20T01:24:54.963Z,14.63
2022-10-20T01:27:32.121Z,14.61
2022-10-20T01:29:59.733Z,14.60
2022-10-20T01:32:40.243Z,14.62
2022-10-20T01:35:23.368Z,14.62
2022-10-20T01:38:09.584Z,14.58
2022-10-20T01:40:55.892Z,14.56
2022-10-20T01:43:25.011Z,14.56
2022-10-20T01:45:52.860Z,14.60
2022-10-20T01:48:24.261Z,14.59
2022-10-20T01:50:52.157Z,14.60
2022-10-20T01:53:20.842Z,14.62
2022-10-20T01:55:51.866Z,14.61
2022-10-20T01:58:37.679Z,14.59
2022-10-20T02:01:38.737Z,14.61
2022-10-20T02:04:06.545Z,14.62
2022-10-20T02:06:36.396Z,14.61
2022-10-20T02:09:09.709Z,14.64
2022-10-20T02:11:46.575Z,14.64
2022-10-20T02:14:15.579Z,14.64
2022-10-20T02:16:48.877Z,14.63
2022-10-20T02:19:18.031Z,14.64
2022-10-20T02:21:45.915Z,14.67
2022-10-20T02:24:18.248Z,14.67
2022-10-20T02:26:46.034Z,14.65
2022-10-20T02:29:16.785Z,14.63
2022-10-20T02:31:45.393Z,14.61
2022-10-20T02:34:13.130Z,14.65
2022-10-20T02:36:42.469Z,14.65
2022-10-20T02:39:10.553Z,14.64
2022-10-20T02:41:38.449Z,14.62
2022-10-20T02:44:06.417Z,14.63
2022-10-20T02:46:34.167Z,14.63
2022-10-20T02:49:01.977Z,14.66
2022-10-20T02:51:29.695Z,14.67
2022-10-20T02:53:57.494Z,14.69
2022-10-20T02:56:27.588Z,14.71
2022-10-20T02:58:57.982Z,14.74
2022-10-20T03:01:26.555Z,14.71
2022-10-20T03:03:59.743Z,14.70
2022-10-20T03:06:27.623Z,14.72
2022-10-20T03:08:55.475Z,14.68
2022-10-20T03:11:23.179Z,14.68
2022-10-20T03:13:50.933Z,14.68
2022-10-20T03:16:18.634Z,14.70
2022-10-20T03:18:46.376Z,14.71
2022-10-20T03:21:14.114Z,14.73
2022-10-20T03:23:41.897Z,14.73
2022-10-20T03:26:11.086Z,14.73
2022-10-20T03:28:41.913Z,14.70
2022-10-20T03:31:09.823Z,14.73
2022-10-20T03:33:37.589Z,14.74
2022-10-20T03:36:05.934Z,14.75
2022-10-20T03:38:33.660Z,14.76
2022-10-20T03:43:34.138Z,14.77
2022-10-20T03:46:06.161Z,14.78
2022-10-20T03:48:40.644Z,14.74
2022-10-20T03:51:08.907Z,14.73
2022-10-20T03:53:36.688Z,14.72
2022-10-20T03:56:08.689Z,14.74
2022-10-20T03:58:36.737Z,14.70
2022-10-20T04:01:04.881Z,14.73
2022-10-20T04:03:32.663Z,14.72
2022-10-20T04:06:00.455Z,14.74
2022-10-20T04:08:28.239Z,14.76
2022-10-20T04:10:56.033Z,14.71
2022-10-20T04:13:23.787Z,14.71
2022-10-20T04:15:51.528Z,14.72
2022-10-20T04:18:19.335Z,14.72
2022-10-20T04:20:48.224Z,14.71
2022-10-20T04:23:16.125Z,14.69
2022-10-20T04:25:47.042Z,14.70
2022-10-20T04:28:15.613Z,14.70
2022-10-20T04:30:43.507Z,14.66
2022-10-20T04:33:11.409Z,14.66
2022-10-20T04:35:39.370Z,14.69
2022-10-20T04:38:07.214Z,14.70
2022-10-20T04:40:34.957Z,14.71
2022-10-20T04:43:02.834Z,14.70
2022-10-20T04:45:30.585Z,14.71
2022-10-20T04:47:58.378Z,14.72
2022-10-20T04:50:26.128Z,14.72
2022-10-20T04:52:53.895Z,14.71
2022-10-20T04:55:21.673Z,14.73
2022-10-20T04:57:49.529Z,14.68
2022-10-20T05:00:17.353Z,14.69
2022-10-20T05:02:45.157Z,14.71
2022-10-20T05:05:12.942Z,14.69
2022-10-20T05:07:40.684Z,14.70
2022-10-20T05:10:08.947Z,14.68
2022-10-20T05:12:36.922Z,14.68
2022-10-20T05:15:05.344Z,14.69
2022-10-20T05:17:33.055Z,14.71
2022-10-20T05:20:02.623Z,14.72
2022-10-20T05:22:32.104Z,14.71
2022-10-20T05:25:12.776Z,14.70
2022-10-20T05:27:46.198Z,14.69
2022-10-20T05:30:13.890Z,14.72
2022-10-20T05:32:41.652Z,14.70
2022-10-20T05:35:09.819Z,14.69
2022-10-20T05:37:37.561Z,14.69
2022-10-20T05:40:07.820Z,14.67
2022-10-20T05:42:35.830Z,14.66
2022-10-20T05:45:03.877Z,14.64
2022-10-20T05:47:31.625Z,14.65
2022-10-20T05:49:59.321Z,14.64
2022-10-20T05:52:27.068Z,14.65
2022-10-20T05:54:54.836Z,14.64
2022-10-20T05:57:22.574Z,14.62
2022-10-20T05:59:50.230Z,14.61
2022-10-20T06:02:18.065Z,14.73
2022-10-20T06:04:45.829Z,14.69
2022-10-20T06:07:13.661Z,14.68
2022-10-20T06:09:41.588Z,14.69
2022-10-20T06:12:09.606Z,14.67
2022-10-20T06:14:37.438Z,14.64
2022-10-20T06:17:05.511Z,14.60
2022-10-20T06:19:33.674Z,14.63
2022-10-20T06:22:05.449Z,14.62
2022-10-20T06:24:35.244Z,14.64
2022-10-20T06:27:03.052Z,14.64
2022-10-20T06:29:30.882Z,14.63
2022-10-20T06:31:58.726Z,14.64
2022-10-20T06:34:26.894Z,14.64
2022-10-20T06:36:54.760Z,14.65
2022-10-20T06:39:23.899Z,14.65
2022-10-20T06:41:53.089Z,14.68
2022-10-20T06:44:24.891Z,14.69
2022-10-20T06:46:53.820Z,14.68
2022-10-20T06:49:21.982Z,14.68
2022-10-20T06:51:49.874Z,14.69
2022-10-20T06:54:17.793Z,14.68
2022-10-20T06:56:45.705Z,14.69
2022-10-20T06:59:13.569Z,14.68
2022-10-20T07:01:41.513Z,14.65
2022-10-20T07:04:15.234Z,14.66
2022-10-20T07:06:44.347Z,14.69
2022-10-20T07:09:19.065Z,14.70
2022-10-20T07:11:46.987Z,14.70
2022-10-20T07:14:15.116Z,14.70
2022-10-20T07:16:43.053Z,14.72
2022-10-20T07:19:10.871Z,14.75
2022-10-20T07:21:41.618Z,14.75
2022-10-20T07:24:13.061Z,14.76
2022-10-20T07:26:41.581Z,14.74
2022-10-20T07:29:10.013Z,14.75
2022-10-20T07:31:39.730Z,14.73
2022-10-20T07:34:26.302Z,14.74
2022-10-20T07:36:55.494Z,14.71
2022-10-20T07:39:23.331Z,14.71
2022-10-20T07:41:51.171Z,14.74
2022-10-20T07:44:18.896Z,14.74
2022-10-20T07:46:46.721Z,14.73
2022-10-20T07:52:11.103Z,14.74
2022-10-20T07:54:38.826Z,14.77
2022-10-20T07:57:06.537Z,14.77
2022-10-20T07:59:34.410Z,14.77
2022-10-20T08:02:02.250Z,14.78
2022-10-20T08:04:32.602Z,14.79
2022-10-20T08:07:01.113Z,14.80
2022-10-20T08:09:28.918Z,14.83
2022-10-20T08:11:56.794Z,14.83
2022-10-20T08:14:28.145Z,14.85
2022-10-20T08:16:58.318Z,14.81
2022-10-20T08:22:14.209Z,14.92
2022-10-20T08:24:41.955Z,14.98
2022-10-20T08:27:09.764Z,15.02
2022-10-20T08:29:37.800Z,15.07
2022-10-20T08:32:05.984Z,15.12
2022-10-20T08:34:33.713Z,15.13
2022-10-20T08:37:01.517Z,15.16
2022-10-20T08:39:29.642Z,15.15
2022-10-20T08:42:12.630Z,15.17
2022-10-20T08:44:41.360Z,15.23
2022-10-20T08:47:25.653Z,15.29
2022-10-20T08:49:55.804Z,15.33
2022-10-20T08:52:25.002Z,15.37
2022-10-20T08:54:55.224Z,15.40
2022-10-20T08:57:28.687Z,15.41
2022-10-20T09:00:03.867Z,15.42
2022-10-20T09:02:33.603Z,15.45
2022-10-20T09:05:01.341Z,15.45
2022-10-20T09:07:36.924Z,15.47
2022-10-20T09:10:17.100Z,15.48
2022-10-20T09:12:46.330Z,15.48
2022-10-20T09:15:15.474Z,15.47
2022-10-20T09:18:03.082Z,15.47
2022-10-20T09:20:34.372Z,15.46
2022-10-20T09:23:07.911Z,15.45
2022-10-20T09:25:45.117Z,15.45
2022-10-20T09:28:34.808Z,15.52
2022-10-20T09:31:53.893Z,15.56
2022-10-20T09:34:28.560Z,15.55
2022-10-20T09:37:08.317Z,15.57
2022-10-20T09:39:43.716Z,15.62
2022-10-20T09:42:16.511Z,15.70
2022-10-20T09:44:55.075Z,15.78
2022-10-20T09:47:23.565Z,15.85
2022-10-20T09:50:02.060Z,15.94
2022-10-20T09:52:45.601Z,15.95
2022-10-20T09:55:36.193Z,15.96
2022-10-20T09:58:05.243Z,15.93
2022-10-20T10:00:38.303Z,15.97
2022-10-20T10:03:22.398Z,16.02
2022-10-20T10:06:00.372Z,16.08
2022-10-20T10:08:35.485Z,16.17
2022-10-20T10:11:07.302Z,16.22
2022-10-20T10:13:40.388Z,16.23
2022-10-20T10:16:12.334Z,16.28
2022-10-20T10:18:40.155Z,16.31
2022-10-20T10:21:11.727Z,16.36
2022-10-20T10:23:56.779Z,16.43
2022-10-20T10:26:48.780Z,16.58
2022-10-20T10:29:22.031Z,16.77
2022-10-20T10:31:57.721Z,16.96
2022-10-20T10:34:53.941Z,17.05
2022-10-20T10:39:54.614Z,17.28
2022-10-20T10:42:32.381Z,17.31
2022-10-20T10:45:24.422Z,17.33
2022-10-20T10:48:16.904Z,17.34
2022-10-20T10:51:00.591Z,17.37
2022-10-20T10:53:32.759Z,17.31
2022-10-20T10:56:14.261Z,17.26
2022-10-20T10:59:02.928Z,17.22
2022-10-20T11:01:41.952Z,17.13
2022-10-20T11:04:57.107Z,17.10
2022-10-20T11:08:02.010Z,17.00
2022-10-20T11:10:53.224Z,16.96
2022-10-20T11:13:49.878Z,16.89
2022-10-20T11:16:43.370Z,16.88
2022-10-20T11:19:14.136Z,16.85
2022-10-20T11:21:48.083Z,16.79
2022-10-20T11:24:18.935Z,16.79
2022-10-20T11:26:48.868Z,16.80
2022-10-20T11:29:21.086Z,16.82
2022-10-20T11:31:58.907Z,16.87
2022-10-20T11:34:35.136Z,16.88
2022-10-20T11:37:17.041Z,16.88
2022-10-20T11:40:17.490Z,16.89
2022-10-20T11:43:14.001Z,16.86
2022-10-20T11:45:56.890Z,16.84
2022-10-20T11:48:32.121Z,16.83
2022-10-20T11:53:44.149Z,16.80
2022-10-20T11:56:35.329Z,16.80
2022-10-20T11:59:07.042Z,16.82
2022-10-20T12:01:42.634Z,16.80
2022-10-20T12:04:24.173Z,16.76
2022-10-20T12:07:13.640Z,16.68
2022-10-20T12:10:03.637Z,16.62
2022-10-20T12:12:42.397Z,16.61
2022-10-20T12:15:26.674Z,16.58
2022-10-20T12:17:55.152Z,16.53
2022-10-20T12:20:22.929Z,16.53
2022-10-20T12:22:55.244Z,16.46
2022-10-20T12:25:26.261Z,16.42
2022-10-20T12:28:21.834Z,16.37
2022-10-20T12:31:00.422Z,16.37
2022-10-20T12:34:00.401Z,16.37
2022-10-20T12:36:31.019Z,16.35
2022-10-20T12:39:10.038Z,16.35
2022-10-20T12:41:40.968Z,16.35
2022-10-20T12:44:15.142Z,16.33
2022-10-20T12:46:54.170Z,16.32
2022-10-20T12:49:33.779Z,16.36
2022-10-20T12:52:01.680Z,16.38
2022-10-20T12:54:32.380Z,16.40
2022-10-20T12:57:02.723Z,16.44
2022-10-20T12:59:30.354Z,16.47
2022-10-20T13:02:10.218Z,16.50
2022-10-20T13:05:08.825Z,16.51
2022-10-20T13:07:51.401Z,16.52
2022-10-20T13:10:27.935Z,16.51
2022-10-20T13:13:21.653Z,16.47
2022-10-20T13:15:53.827Z,16.39
2022-10-20T13:18:36.390Z,16.34
2022-10-20T13:21:24.462Z,16.30
2022-10-20T13:24:07.082Z,16.27
2022-10-20T13:26:58.601Z,16.27
2022-10-20T13:29:40.893Z,16.23
2022-10-20T13:32:33.640Z,16.19
2022-10-20T13:35:08.633Z,16.21
2022-10-20T13:37:42.311Z,16.27
2022-10-20T13:40:18.919Z,16.29
2022-10-20T13:43:18.103Z,16.29
2022-10-20T13:45:52.031Z,16.27
2022-10-20T13:48:19.733Z,16.24
2022-10-20T13:50:50.980Z,16.25
2022-10-20T13:53:29.932Z,16.24
2022-10-20T13:56:05.568Z,16.22
2022-10-20T13:58:34.383Z,16.18
2022-10-20T14:01:04.090Z,16.15
2022-10-20T14:03:33.158Z,16.08
2022-10-20T14:06:01.065Z,16.04
2022-10-20T14:08:28.901Z,16.03
2022-10-20T14:11:01.360Z,16.03
2022-10-20T14:13:30.758Z,15.98
2022-10-20T14:15:59.764Z,15.96
2022-10-20T14:18:29.434Z,15.94
2022-10-20T14:21:09.646Z,15.92
2022-10-20T14:23:43.040Z,15.94
2022-10-20T14:26:31.121Z,15.94
2022-10-20T14:28:58.910Z,15.93
2022-10-20T14:31:26.723Z,15.94
2022-10-20T14:33:56.974Z,15.95
2022-10-20T14:39:02.112Z,15.96
2022-10-20T14:41:34.302Z,15.94
2022-10-20T14:44:08.925Z,15.94
2022-10-20T14:46:42.280Z,15.93
2022-10-20T14:49:15.811Z,15.91
2022-10-20T14:51:46.368Z,15.91
2022-10-20T14:57:29.151Z,15.90
2022-10-20T15:00:04.255Z,15.93
2022-10-20T15:02:35.193Z,15.95
2022-10-20T15:05:28.169Z,15.95
2022-10-20T15:07:55.989Z,15.95
2022-10-20T15:10:27.141Z,15.92
2022-10-20T15:12:55.931Z,15.88
2022-10-20T15:15:28.274Z,15.88
2022-10-20T15:18:05.185Z,15.89
2022-10-20T15:20:35.998Z,15.91
2022-10-20T15:23:10.664Z,15.89
2022-10-20T15:25:52.083Z,15.92
2022-10-20T15:28:27.402Z,15.90
2022-10-20T15:30:55.639Z,15.91
2022-10-20T15:33:23.580Z,15.90
2022-10-20T15:35:52.159Z,15.86
2022-10-20T15:38:19.958Z,15.79
2022-10-20T15:40:48.457Z,15.76
2022-10-20T15:43:18.500Z,15.77
2022-10-20T15:45:55.783Z,15.77
2022-10-20T15:48:26.929Z,15.79
2022-10-20T15:51:12.330Z,15.75
2022-10-20T15:53:40.100Z,15.75
2022-10-20T15:56:08.369Z,15.83
2022-10-20T15:58:39.691Z,15.90
2022-10-20T16:01:08.061Z,15.83
2022-10-20T16:03:36.871Z,15.79
2022-10-20T16:06:04.662Z,15.80
2022-10-20T16:08:37.001Z,15.80
2022-10-20T16:11:04.971Z,15.82
2022-10-20T16:13:35.865Z,15.79
2022-10-20T16:16:03.646Z,15.79
2022-10-20T16:18:31.453Z,15.79
2022-10-20T16:20:59.597Z,15.76
2022-10-20T16:23:27.392Z,15.74
2022-10-20T16:25:55.174Z,15.72
2022-10-20T16:28:22.973Z,15.71
2022-10-20T16:30:50.729Z,15.68
2022-10-20T16:33:18.598Z,15.66
2022-10-20T16:35:46.324Z,15.66
2022-10-20T16:38:14.781Z,15.61
2022-10-20T16:40:43.595Z,15.61
2022-10-20T16:43:11.387Z,15.61
2022-10-20T16:45:41.666Z,15.59
2022-10-20T16:48:09.367Z,15.55
2022-10-20T16:50:41.153Z,15.53
2022-10-20T16:53:08.947Z,15.52
2022-10-20T16:55:36.775Z,15.53
2022-10-20T16:58:04.733Z,15.56
2022-10-20T17:00:32.515Z,15.50
2022-10-20T17:03:00.448Z,15.48
2022-10-20T17:05:28.280Z,15.44
2022-10-20T17:07:56.534Z,15.39
2022-10-20T17:10:24.258Z,15.33
2022-10-20T17:12:52.001Z,15.31
2022-10-20T17:15:19.764Z,15.28
2022-10-20T17:17:47.500Z,15.29
2022-10-20T17:20:15.330Z,15.31
2022-10-20T17:22:43.041Z,15.29
2022-10-20T17:25:11.000Z,15.27
2022-10-20T17:27:38.850Z,15.27
2022-10-20T17:30:07.273Z,15.25
2022-10-20T17:32:35.401Z,15.24
2022-10-20T17:35:03.439Z,15.22
2022-10-20T17:37:31.240Z,15.22
2022-10-20T17:39:58.946Z,15.21
2022-10-20T17:42:26.617Z,15.12
2022-10-20T17:44:54.468Z,15.09
2022-10-20T17:47:23.584Z,15.10
2022-10-20T17:49:51.715Z,15.08
2022-10-20T17:52:19.455Z,15.07
2022-10-20T17:54:47.154Z,15.07
2022-10-20T17:57:16.433Z,15.06
2022-10-20T17:59:52.782Z,15.03
2022-10-20T18:02:24.744Z,15.04
2022-10-20T18:04:52.839Z,15.03
2022-10-20T18:07:20.571Z,15.02
2022-10-20T18:09:48.327Z,15.03
2022-10-20T18:12:16.105Z,15.02
2022-10-20T18:14:43.908Z,15.03
2022-10-20T18:17:11.665Z,15.03
2022-10-20T18:19:39.547Z,15.05
2022-10-20T18:22:07.251Z,15.06
2022-10-20T18:24:35.469Z,15.08
2022-10-20T18:27:03.209Z,15.08
2022-10-20T18:29:32.072Z,15.09
2022-10-20T18:31:59.856Z,15.10
2022-10-20T18:34:27.564Z,15.12
2022-10-20T18:36:55.790Z,15.11
2022-10-20T18:39:23.724Z,15.12
2022-10-20T18:41:52.535Z,15.12
2022-10-20T18:44:20.515Z,15.10
2022-10-20T18:46:48.426Z,15.14
2022-10-20T18:49:17.383Z,15.14
2022-10-20T18:51:46.361Z,15.12
2022-10-20T18:54:14.380Z,15.13
2022-10-20T18:56:42.240Z,15.13
2022-10-20T18:59:11.510Z,15.11
2022-10-20T19:01:39.690Z,15.10
2022-10-20T19:04:07.855Z,15.09
2022-10-20T19:06:37.875Z,15.04
2022-10-20T19:09:10.524Z,14.99
2022-10-20T19:11:39.355Z,14.97
2022-10-20T19:14:08.957Z,14.98
2022-10-20T19:16:36.878Z,15.00
2022-10-20T19:19:06.426Z,15.04
2022-10-20T19:21:34.643Z,15.07
2022-10-20T19:24:04.713Z,15.06
2022-10-20T19:26:36.777Z,15.08
2022-10-20T19:29:07.251Z,15.09
2022-10-20T19:31:43.002Z,15.08
2022-10-20T19:34:13.358Z,15.03
2022-10-20T19:36:41.796Z,15.03
2022-10-20T19:39:10.458Z,15.01
2022-10-20T19:41:38.485Z,15.00
2022-10-20T19:44:06.269Z,14.97
2022-10-20T19:46:34.172Z,14.93
2022-10-20T19:49:02.522Z,14.90
2022-10-20T19:51:32.253Z,14.89
2022-10-20T19:53:59.958Z,14.86
2022-10-20T19:56:27.775Z,14.82
2022-10-20T19:58:55.508Z,14.79
2022-10-20T20:01:23.312Z,14.81
2022-10-20T20:03:51.096Z,14.83
2022-10-20T20:06:20.092Z,14.84
2022-10-20T20:08:50.025Z,14.80
2022-10-20T20:11:24.858Z,14.85
2022-10-20T20:13:57.317Z,14.88
2022-10-20T20:16:25.099Z,14.82
2022-10-20T20:18:52.864Z,14.78
2022-10-20T20:21:20.693Z,14.77
2022-10-20T20:23:58.884Z,14.83
2022-10-20T20:26:28.626Z,14.77
2022-10-20T20:28:56.535Z,14.70
2022-10-20T20:31:24.608Z,14.67
2022-10-20T20:33:52.392Z,14.66
2022-10-20T20:36:20.219Z,14.62
2022-10-20T20:38:47.961Z,14.64
2022-10-20T20:41:17.523Z,14.71
2022-10-20T20:43:48.315Z,14.74
2022-10-20T20:46:17.539Z,14.80
2022-10-20T20:48:45.357Z,14.78
2022-10-20T20:51:13.510Z,14.77
2022-10-20T20:53:41.313Z,14.81
2022-10-20T20:56:10.674Z,14.78
2022-10-20T20:58:38.523Z,14.77
2022-10-20T21:01:14.051Z,14.76
2022-10-20T21:03:41.798Z,14.77
2022-10-20T21:06:11.192Z,14.74
2022-10-20T21:08:39.950Z,14.72
2022-10-20T21:11:08.986Z,14.70
2022-10-20T21:13:36.913Z,14.71
2022-10-20T21:16:11.267Z,14.65
2022-10-20T21:18:39.913Z,14.62
2022-10-20T21:21:28.738Z,14.74
2022-10-20T21:23:56.976Z,14.79
2022-10-20T21:26:24.997Z,14.85
2022-10-20T21:28:54.130Z,14.79
2022-10-20T21:31:23.587Z,14.79
2022-10-20T21:33:52.584Z,14.86
2022-10-20T21:36:20.822Z,14.88
2022-10-20T21:38:48.698Z,14.95
2022-10-20T21:41:26.817Z,14.92
2022-10-20T21:43:55.855Z,14.86
2022-10-20T21:46:29.407Z,14.84
2022-10-20T21:49:00.121Z,14.91
2022-10-20T21:51:32.471Z,14.97
2022-10-20T21:54:05.039Z,14.96
2022-10-20T21:56:37.307Z,14.92
2022-10-20T21:59:08.938Z,15.05
2022-10-20T22:01:37.734Z,15.14
2022-10-20T22:04:05.493Z,15.10
2022-10-20T22:06:33.393Z,15.01
2022-10-20T22:09:01.845Z,14.94
2022-10-20T22:11:32.087Z,14.93
2022-10-20T22:13:59.909Z,15.16
2022-10-20T22:16:29.184Z,15.10
2022-10-20T22:18:58.333Z,15.08
2022-10-20T22:21:26.451Z,15.02
2022-10-20T22:23:55.208Z,15.10
2022-10-20T22:26:23.455Z,15.10
2022-10-20T22:28:52.028Z,15.07
2022-10-20T22:31:19.812Z,15.07
2022-10-20T22:33:47.714Z,15.05
2022-10-20T22:36:15.397Z,15.11
2022-10-20T22:38:43.197Z,15.15
2022-10-20T22:41:11.123Z,15.11
2022-10-20T22:43:38.920Z,15.07
2022-10-20T22:46:06.852Z,15.07
2022-10-20T22:48:34.887Z,15.06
2022-10-20T22:51:06.035Z,15.05
2022-10-20T22:53:33.833Z,15.05
2022-10-20T22:56:09.230Z,15.13
2022-10-20T22:58:37.021Z,15.08
2022-10-20T23:01:12.563Z,15.00
2022-10-20T23:03:40.526Z,15.00
2022-10-20T23:06:10.128Z,14.99
2022-10-20T23:08:42.157Z,14.99
2022-10-20T23:11:09.952Z,14.92
2022-10-20T23:13:37.660Z,14.91
2022-10-20T23:16:05.584Z,14.91
2022-10-20T23:18:33.519Z,14.87
2022-10-20T23:21:01.218Z,14.86
2022-10-20T23:23:28.961Z,14.87
2022-10-20T23:25:58.493Z,14.85
2022-10-20T23:28:28.597Z,14.82
2022-10-20T23:31:14.961Z,14.79
2022-10-20T23:33:43.324Z,14.76
2022-10-20T23:36:11.591Z,14.73
2022-10-20T23:38:39.366Z,14.75
2022-10-20T23:41:07.404Z,14.71
2022-10-20T23:46:03.926Z,14.64
2022-10-20T23:48:31.692Z,14.63
2022-10-20T23:50:59.411Z,14.66
2022-10-20T23:53:27.268Z,14.67
2022-10-20T23:55:54.973Z,14.67
2022-10-20T23:58:23.740Z,14.66
